Time;durP1;ratioP1;P1;durP2;ratioP2;P2;SDS_P1;SDS_P2;PMS_P1;PMS_P2;Temp;Humidity;BMP_temperature;BMP_pressure;BME280_temperature;BME280_humidity;BME280_pressure;Samples;Min_cycle;Max_cycle;Signal;HPM_P1;HPM_P2
2023/02/09 00:01:13;;;;;;;74.43;41.67;;;;;;;;;;4996176;28;20088;-72
2023/02/09 00:03:39;;;;;;;75.97;42.22;;;;;;;;;;4996368;28;20077;-71
2023/02/09 00:06:05;;;;;;;73.13;39.83;;;;;;;;;;4995153;28;20034;-71
2023/02/09 00:08:31;;;;;;;69.85;39.65;;;;;;;;;;4995505;28;20042;-72
2023/02/09 00:10:57;;;;;;;69.47;40.53;;;;;;;;;;4996069;28;20026;-71
2023/02/09 00:13:23;;;;;;;66.40;37.67;;;;;;;;;;4962715;28;20037;-71
2023/02/09 00:15:48;;;;;;;63.92;38.10;;;;;;;;;;4978616;28;20057;-71
2023/02/09 00:18:14;;;;;;;68.68;38.83;;;;;;;;;;4996041;28;20050;-71
2023/02/09 00:20:39;;;;;;;69.80;39.20;;;;;;;;;;4995784;28;20034;-73
2023/02/09 00:23:05;;;;;;;71.40;39.25;;;;;;;;;;4978689;28;20377;-73
2023/02/09 00:25:31;;;;;;;71.35;39.88;;;;;;;;;;4978670;28;20037;-73
2023/02/09 00:27:57;;;;;;;71.47;38.50;;;;;;;;;;4996351;28;20412;-73
2023/02/09 00:30:22;;;;;;;66.63;38.90;;;;;;;;;;4996098;28;20019;-73
2023/02/09 00:32:48;;;;;;;69.18;38.50;;;;;;;;;;4996105;28;20449;-73
2023/02/09 00:35:13;;;;;;;69.88;39.30;;;;;;;;;;4978342;28;20030;-73
2023/02/09 00:37:40;;;;;;;69.88;39.50;;;;;;;;;;4996195;28;20512;-73
2023/02/09 00:40:06;;;;;;;71.30;40.33;;;;;;;;;;4962196;28;20439;-73
2023/02/09 00:42:39;;;;;;;71.32;39.28;;;;;;;;;;4995947;28;20030;-73
2023/02/09 00:45:05;;;;;;;69.28;39.35;;;;;;;;;;4995701;28;20038;-73
2023/02/09 00:47:31;;;;;;;63.45;36.35;;;;;;;;;;4978344;28;20026;-73
2023/02/09 00:49:56;;;;;;;66.32;36.85;;;;;;;;;;4995693;28;20037;-73
2023/02/09 00:52:27;;;;;;;59.63;33.88;;;;;;;;;;4994424;28;20373;-73
2023/02/09 00:54:52;;;;;;;63.03;37.40;;;;;;;;;;4995419;28;20026;-73
2023/02/09 00:57:17;;;;;;;72.35;38.47;;;;;;;;;;4994028;28;20612;-73
2023/02/09 00:59:43;;;;;;;65.22;36.97;;;;;;;;;;4995597;28;20105;-73
2023/02/09 01:02:08;;;;;;;65.97;36.70;;;;;;;;;;4995450;28;20477;-68
2023/02/09 01:04:34;;;;;;;67.22;37.53;;;;;;;;;;5038286;23;20543;-69
2023/02/09 01:06:59;;;;;;;68.80;38.63;;;;;;;;;;5051508;28;20033;-68
2023/02/09 01:09:26;;;;;;;64.90;37.50;;;;;;;;;;5039264;28;20025;-68
2023/02/09 01:11:51;;;;;;;70.90;40.33;;;;;;;;;;5074614;28;20033;-67
2023/02/09 01:14:16;;;;;;;67.32;37.67;;;;;;;;;;5075301;28;20024;-66
2023/02/09 01:16:42;;;;;;;67.32;36.58;;;;;;;;;;5039748;28;20028;-68
2023/02/09 01:19:10;;;;;;;64.88;37.08;;;;;;;;;;5056180;28;20127;-69
2023/02/09 01:21:35;;;;;;;63.25;37.03;;;;;;;;;;5053638;28;20117;-67
2023/02/09 01:24:02;;;;;;;56.63;33.67;;;;;;;;;;5019934;28;20490;-68
2023/02/09 01:26:27;;;;;;;68.45;35.85;;;;;;;;;;5036237;28;20036;-69
2023/02/09 01:28:53;;;;;;;56.22;33.35;;;;;;;;;;5038784;28;20033;-69
2023/02/09 01:31:36;;;;;;;58.25;33.83;;;;;;;;;;5073280;28;20078;-69
2023/02/09 01:34:02;;;;;;;59.50;34.08;;;;;;;;;;5073730;28;20058;-68
2023/02/09 01:36:30;;;;;;;59.08;33.70;;;;;;;;;;5073660;28;20532;-68
2023/02/09 01:38:56;;;;;;;55.45;33.92;;;;;;;;;;5073560;28;20016;-67
2023/02/09 01:41:21;;;;;;;55.55;33.08;;;;;;;;;;5073608;28;20040;-70
2023/02/09 01:43:53;;;;;;;51.92;30.67;;;;;;;;;;5056082;28;20111;-68
2023/02/09 01:46:19;;;;;;;49.45;29.00;;;;;;;;;;5039409;28;20091;-68
2023/02/09 01:48:46;;;;;;;48.92;28.40;;;;;;;;;;5056120;28;20048;-68
2023/02/09 01:51:12;;;;;;;51.53;30.15;;;;;;;;;;5055566;28;20058;-68
2023/02/09 01:53:37;;;;;;;51.22;30.80;;;;;;;;;;5055525;28;20063;-68
2023/02/09 01:56:06;;;;;;;61.20;32.53;;;;;;;;;;5055723;28;20036;-67
2023/02/09 01:58:33;;;;;;;54.53;31.80;;;;;;;;;;5052108;28;20021;-68
2023/02/09 02:00:58;;;;;;;50.42;29.52;;;;;;;;;;5055186;28;20463;-68
2023/02/09 02:03:25;;;;;;;53.17;30.58;;;;;;;;;;5081545;23;20183;-73
2023/02/09 02:05:52;;;;;;;55.28;32.22;;;;;;;;;;5059509;23;20502;-70
2023/02/09 02:08:25;;;;;;;55.08;31.65;;;;;;;;;;5033248;28;20021;-72
2023/02/09 02:10:52;;;;;;;58.95;34.05;;;;;;;;;;5016315;28;20076;-72
2023/02/09 02:13:18;;;;;;;54.45;32.45;;;;;;;;;;5032200;28;20025;-72
2023/02/09 02:16:06;;;;;;;58.30;32.28;;;;;;;;;;5033798;28;20025;-70
2023/02/09 02:18:35;;;;;;;61.28;33.45;;;;;;;;;;5025403;28;20041;-71
2023/02/09 02:21:09;;;;;;;62.10;33.95;;;;;;;;;;5032601;28;20022;-71
2023/02/09 02:23:35;;;;;;;56.55;33.35;;;;;;;;;;5015776;28;20037;-70
2023/02/09 02:26:07;;;;;;;60.78;32.83;;;;;;;;;;5032276;28;20060;-69
2023/02/09 02:28:32;;;;;;;51.60;30.20;;;;;;;;;;4999883;28;20025;-71
2023/02/09 02:31:03;;;;;;;49.80;28.92;;;;;;;;;;5018302;28;20095;-69
2023/02/09 02:33:30;;;;;;;44.83;26.33;;;;;;;;;;5018672;28;20037;-73
2023/02/09 02:36:01;;;;;;;46.35;26.98;;;;;;;;;;5037730;28;20120;-73
2023/02/09 02:38:36;;;;;;;40.50;24.13;;;;;;;;;;5037185;28;20423;-68
2023/02/09 02:41:07;;;;;;;41.80;24.55;;;;;;;;;;5019270;28;20029;-70
2023/02/09 02:43:32;;;;;;;43.70;25.60;;;;;;;;;;5019634;28;20036;-70
2023/02/09 02:46:00;;;;;;;44.78;27.08;;;;;;;;;;5037106;28;20033;-68
2023/02/09 02:48:44;;;;;;;45.30;25.85;;;;;;;;;;5037446;28;20108;-70
2023/02/09 02:51:23;;;;;;;49.28;27.60;;;;;;;;;;5019046;28;20029;-70
2023/02/09 02:53:51;;;;;;;42.45;25.67;;;;;;;;;;5036995;28;20037;-70
2023/02/09 02:56:23;;;;;;;45.97;27.15;;;;;;;;;;5002862;28;20033;-72
2023/02/09 02:58:49;;;;;;;52.10;28.52;;;;;;;;;;4983441;28;20046;-71
2023/02/09 03:01:17;;;;;;;48.72;27.90;;;;;;;;;;5017388;28;20038;-72
2023/02/09 03:03:43;;;;;;;50.15;28.60;;;;;;;;;;4999599;28;20399;-72
2023/02/09 03:06:09;;;;;;;47.78;27.80;;;;;;;;;;5012925;28;20049;-69
2023/02/09 03:08:44;;;;;;;47.78;28.15;;;;;;;;;;5035958;28;20030;-67
2023/02/09 03:11:10;;;;;;;50.30;28.83;;;;;;;;;;5037026;28;20061;-71
2023/02/09 03:13:37;;;;;;;47.72;29.27;;;;;;;;;;5035816;28;20094;-67
2023/02/09 03:16:06;;;;;;;49.33;28.60;;;;;;;;;;5019175;28;20547;-68
2023/02/09 03:18:36;;;;;;;49.88;28.15;;;;;;;;;;5036450;28;20033;-68
2023/02/09 03:21:07;;;;;;;47.80;28.30;;;;;;;;;;5036528;28;20085;-68
2023/02/09 03:23:42;;;;;;;53.35;30.70;;;;;;;;;;5036707;28;20482;-68
2023/02/09 03:26:11;;;;;;;67.25;40.15;;;;;;;;;;5036670;28;20034;-68
2023/02/09 03:28:40;;;;;;;62.38;36.83;;;;;;;;;;5035464;28;20087;-68
2023/02/09 03:31:06;;;;;;;77.15;43.58;;;;;;;;;;5036356;28;20030;-68
2023/02/09 03:33:32;;;;;;;149.95;78.68;;;;;;;;;;5035238;28;20038;-68
2023/02/09 03:35:59;;;;;;;126.25;68.88;;;;;;;;;;5034870;28;20041;-71
2023/02/09 03:38:25;;;;;;;114.93;64.50;;;;;;;;;;5036136;28;20041;-71
2023/02/09 03:40:50;;;;;;;129.57;69.32;;;;;;;;;;5036014;28;20044;-70
2023/02/09 03:43:15;;;;;;;103.50;56.13;;;;;;;;;;5033809;28;20116;-70
2023/02/09 03:45:41;;;;;;;93.90;52.22;;;;;;;;;;5036117;28;20082;-70
2023/02/09 03:48:06;;;;;;;69.93;40.53;;;;;;;;;;5035170;28;20025;-70
2023/02/09 03:50:33;;;;;;;75.13;43.17;;;;;;;;;;5036323;28;20030;-70
2023/02/09 03:52:59;;;;;;;71.03;40.88;;;;;;;;;;5018252;28;20487;-68
2023/02/09 03:55:24;;;;;;;55.88;32.72;;;;;;;;;;5035921;28;20033;-68
2023/02/09 03:57:50;;;;;;;59.53;33.75;;;;;;;;;;5035697;28;20424;-68
2023/02/09 04:00:15;;;;;;;49.53;29.17;;;;;;;;;;5036071;28;20044;-68
2023/02/09 04:02:41;;;;;;;54.70;33.28;;;;;;;;;;5034961;28;20463;-68
2023/02/09 04:05:06;;;;;;;85.65;52.80;;;;;;;;;;5034601;28;20013;-66
2023/02/09 04:07:31;;;;;;;63.38;39.20;;;;;;;;;;5017952;28;20129;-67
2023/02/09 04:09:57;;;;;;;53.47;33.83;;;;;;;;;;5035906;28;20108;-67
2023/02/09 04:12:44;;;;;;;58.17;35.38;;;;;;;;;;5047058;23;20454;-71
2023/02/09 04:15:11;;;;;;;57.67;35.00;;;;;;;;;;5003688;28;20050;-68
2023/02/09 04:17:36;;;;;;;59.08;36.58;;;;;;;;;;4996444;28;20038;-69
2023/02/09 04:20:01;;;;;;;54.78;35.40;;;;;;;;;;4996402;28;20383;-68
2023/02/09 04:22:27;;;;;;;61.53;36.80;;;;;;;;;;4979144;28;20490;-69
2023/02/09 04:24:52;;;;;;;58.65;36.92;;;;;;;;;;4996525;28;20080;-68
2023/02/09 04:27:18;;;;;;;69.07;45.30;;;;;;;;;;4996214;28;20068;-68
2023/02/09 04:29:43;;;;;;;80.90;51.58;;;;;;;;;;4996160;28;20042;-68
2023/02/09 04:32:08;;;;;;;58.67;35.40;;;;;;;;;;4995761;28;20022;-68
2023/02/09 04:34:35;;;;;;;48.53;28.40;;;;;;;;;;4996366;28;20467;-69
2023/02/09 04:37:00;;;;;;;53.75;31.10;;;;;;;;;;4978775;28;20026;-69
2023/02/09 04:39:25;;;;;;;51.38;31.20;;;;;;;;;;4978775;28;20123;-67
2023/02/09 04:41:51;;;;;;;60.08;36.00;;;;;;;;;;4995844;28;20027;-70
2023/02/09 04:44:16;;;;;;;88.15;52.72;;;;;;;;;;4996505;28;20396;-68
2023/02/09 04:46:41;;;;;;;93.68;53.40;;;;;;;;;;4984251;28;20057;-69
2023/02/09 04:49:07;;;;;;;89.72;51.95;;;;;;;;;;5009041;28;20030;-69
2023/02/09 04:51:32;;;;;;;98.45;56.00;;;;;;;;;;4998150;28;20413;-70
2023/02/09 04:53:57;;;;;;;97.93;54.78;;;;;;;;;;4994283;28;20504;-71
2023/02/09 04:56:23;;;;;;;85.05;51.15;;;;;;;;;;4994871;28;20480;-71
2023/02/09 05:01:32;;;;;;;78.80;46.22;;;;;;;;;;4993963;28;20477;-70
2023/02/09 05:03:58;;;;;;;75.30;45.25;;;;;;;;;;4994366;28;20045;-70
2023/02/09 05:06:24;;;;;;;76.60;46.45;;;;;;;;;;5014275;28;20391;-62
2023/02/09 05:08:49;;;;;;;77.63;45.75;;;;;;;;;;5013988;28;20036;-73
2023/02/09 05:11:14;;;;;;;72.75;45.10;;;;;;;;;;4996819;28;20049;-71
2023/02/09 05:13:40;;;;;;;74.10;42.88;;;;;;;;;;5014029;28;20081;-72
2023/02/09 05:16:07;;;;;;;75.03;41.60;;;;;;;;;;4997150;28;20030;-70
2023/02/09 05:18:32;;;;;;;71.72;41.80;;;;;;;;;;4994705;28;20073;-69
2023/02/09 05:20:58;;;;;;;72.40;41.97;;;;;;;;;;4995016;28;20445;-69
2023/02/09 05:23:23;;;;;;;74.15;39.85;;;;;;;;;;4977389;28;20030;-70
2023/02/09 05:25:49;;;;;;;79.95;43.38;;;;;;;;;;4977533;28;20026;-70
2023/02/09 05:28:14;;;;;;;102.05;52.13;;;;;;;;;;5009796;28;20076;-70
2023/02/09 05:30:40;;;;;;;118.05;56.25;;;;;;;;;;4961146;28;20014;-69
2023/02/09 05:33:06;;;;;;;120.50;59.20;;;;;;;;;;4994518;28;20064;-70
2023/02/09 05:35:31;;;;;;;104.47;56.70;;;;;;;;;;4994659;28;20409;-69
2023/02/09 05:37:58;;;;;;;89.13;49.80;;;;;;;;;;5010215;28;20034;-69
2023/02/09 05:40:23;;;;;;;71.88;42.45;;;;;;;;;;5010672;28;20026;-71
2023/02/09 05:42:48;;;;;;;63.28;37.60;;;;;;;;;;4994110;28;20395;-71
2023/02/09 05:45:13;;;;;;;63.28;36.50;;;;;;;;;;5010074;28;20037;-70
2023/02/09 05:47:39;;;;;;;69.28;38.72;;;;;;;;;;4976805;28;20128;-71
2023/02/09 05:50:04;;;;;;;75.47;40.08;;;;;;;;;;4960846;28;20034;-72
2023/02/09 05:52:33;;;;;;;91.43;44.40;;;;;;;;;;4988748;28;20038;-67
2023/02/09 05:54:59;;;;;;;157.77;94.32;;;;;;;;;;4992822;28;20027;-68
2023/02/09 05:57:24;;;;;;;98.35;58.03;;;;;;;;;;4993427;28;20026;-67
2023/02/09 05:59:50;;;;;;;68.90;36.03;;;;;;;;;;4993601;28;20033;-68
2023/02/09 06:02:16;;;;;;;72.93;38.17;;;;;;;;;;4993798;28;20072;-68
2023/02/09 06:04:41;;;;;;;93.13;49.50;;;;;;;;;;4993511;28;20027;-69
2023/02/09 06:07:09;;;;;;;82.70;42.08;;;;;;;;;;4993783;28;20033;-68
2023/02/09 06:09:34;;;;;;;92.88;49.67;;;;;;;;;;4993446;28;20081;-68
2023/02/09 06:11:59;;;;;;;91.85;50.58;;;;;;;;;;4994018;28;20452;-72
2023/02/09 06:14:25;;;;;;;94.82;46.70;;;;;;;;;;4994320;28;20057;-72
2023/02/09 06:16:52;;;;;;;74.60;41.25;;;;;;;;;;4993494;28;20181;-72
2023/02/09 06:19:18;;;;;;;68.13;35.45;;;;;;;;;;4994523;28;20376;-73
2023/02/09 06:21:45;;;;;;;67.85;38.92;;;;;;;;;;4994202;28;20030;-73
2023/02/09 06:24:11;;;;;;;64.20;41.75;;;;;;;;;;4993271;28;20070;-73
2023/02/09 06:26:38;;;;;;;79.07;50.05;;;;;;;;;;4994632;28;20120;-73
2023/02/09 06:29:03;;;;;;;91.68;48.53;;;;;;;;;;5009178;28;20061;-73
2023/02/09 06:31:30;;;;;;;111.03;57.92;;;;;;;;;;5010548;28;20025;-73
2023/02/09 06:33:55;;;;;;;122.47;70.68;;;;;;;;;;5012652;28;20037;-73
2023/02/09 06:36:24;;;;;;;99.10;53.80;;;;;;;;;;4991426;28;20026;-74
2023/02/09 06:38:49;;;;;;;112.53;68.32;;;;;;;;;;5014064;28;20030;-71
2023/02/09 06:41:15;;;;;;;101.43;58.00;;;;;;;;;;5012484;28;20063;-71
2023/02/09 06:43:40;;;;;;;102.18;59.83;;;;;;;;;;5012429;28;20117;-73
2023/02/09 06:46:10;;;;;;;80.65;47.75;;;;;;;;;;5012647;28;20443;-73
2023/02/09 06:48:35;;;;;;;90.47;49.90;;;;;;;;;;5013880;28;20034;-73
2023/02/09 06:51:05;;;;;;;104.18;58.58;;;;;;;;;;5013505;28;20026;-73
2023/02/09 06:53:30;;;;;;;102.43;55.43;;;;;;;;;;5013242;28;20060;-74
2023/02/09 06:56:00;;;;;;;105.00;56.05;;;;;;;;;;4995328;28;20026;-73
2023/02/09 06:58:25;;;;;;;87.85;49.10;;;;;;;;;;5013393;28;20092;-73
2023/02/09 07:00:52;;;;;;;83.72;49.05;;;;;;;;;;5012607;28;20022;-73
2023/02/09 07:03:18;;;;;;;82.55;47.78;;;;;;;;;;4994421;28;20060;-74
2023/02/09 07:05:46;;;;;;;80.30;47.17;;;;;;;;;;4994089;28;20486;-74
2023/02/09 07:08:11;;;;;;;103.82;69.38;;;;;;;;;;4978245;28;20455;-71
2023/02/09 07:10:39;;;;;;;101.05;55.42;;;;;;;;;;5028280;28;20028;-70
2023/02/09 07:13:05;;;;;;;118.97;70.45;;;;;;;;;;5013463;28;20087;-71
2023/02/09 07:15:30;;;;;;;127.45;77.80;;;;;;;;;;4995592;28;20018;-71
2023/02/09 07:17:56;;;;;;;141.32;86.38;;;;;;;;;;4999137;28;20484;-71
2023/02/09 07:20:21;;;;;;;134.10;78.60;;;;;;;;;;5016934;28;20034;-71
2023/02/09 07:22:47;;;;;;;140.90;77.38;;;;;;;;;;5017079;28;20037;-71
2023/02/09 07:25:12;;;;;;;128.07;71.22;;;;;;;;;;5017492;28;20060;-71
2023/02/09 07:27:43;;;;;;;118.35;66.82;;;;;;;;;;5017506;28;20109;-71
2023/02/09 07:30:09;;;;;;;137.38;72.55;;;;;;;;;;5049542;23;20415;-71
2023/02/09 07:32:36;;;;;;;196.05;106.07;;;;;;;;;;5056880;28;20025;-71
2023/02/09 07:35:01;;;;;;;177.73;97.00;;;;;;;;;;5056346;28;20084;-71
2023/02/09 07:37:28;;;;;;;165.60;86.53;;;;;;;;;;5056289;28;20025;-72
2023/02/09 07:39:53;;;;;;;163.02;82.63;;;;;;;;;;5055336;28;20052;-71
2023/02/09 07:42:18;;;;;;;140.38;75.43;;;;;;;;;;5056175;28;20463;-71
2023/02/09 07:44:48;;;;;;;128.57;66.47;;;;;;;;;;5038903;28;20024;-72
2023/02/09 07:47:16;;;;;;;80.40;45.83;;;;;;;;;;5054670;28;20044;-71
2023/02/09 07:49:42;;;;;;;81.15;43.90;;;;;;;;;;5054449;28;20086;-71
2023/02/09 07:52:07;;;;;;;75.68;42.72;;;;;;;;;;5056008;28;20029;-71
2023/02/09 07:54:34;;;;;;;72.70;40.60;;;;;;;;;;5055920;28;20352;-71
2023/02/09 07:56:59;;;;;;;116.55;69.18;;;;;;;;;;5055893;28;20055;-72
2023/02/09 07:59:25;;;;;;;131.18;77.65;;;;;;;;;;5037914;28;20548;-71
2023/02/09 08:01:51;;;;;;;120.18;71.50;;;;;;;;;;5054777;28;20481;-72
2023/02/09 08:04:16;;;;;;;134.38;76.50;;;;;;;;;;5056547;28;20029;-71
2023/02/09 08:06:44;;;;;;;149.75;82.78;;;;;;;;;;5055612;28;20542;-71
2023/02/09 08:09:10;;;;;;;164.95;91.38;;;;;;;;;;5054448;28;20033;-71
2023/02/09 08:11:41;;;;;;;164.27;90.28;;;;;;;;;;5055624;28;20053;-71
2023/02/09 08:14:12;;;;;;;166.43;84.63;;;;;;;;;;5055588;28;20468;-71
2023/02/09 08:16:37;;;;;;;160.68;82.40;;;;;;;;;;5054568;28;20521;-71
2023/02/09 08:19:04;;;;;;;151.20;79.90;;;;;;;;;;5055687;28;20017;-70
2023/02/09 08:21:32;;;;;;;149.85;81.32;;;;;;;;;;5054149;28;20483;-72
2023/02/09 08:23:58;;;;;;;146.45;81.88;;;;;;;;;;5055416;28;20431;-71
2023/02/09 08:26:23;;;;;;;151.63;87.72;;;;;;;;;;5055230;28;20112;-71
2023/02/09 08:28:50;;;;;;;150.45;85.72;;;;;;;;;;5060793;22;20521;-71
2023/02/09 08:31:39;;;;;;;146.70;85.07;;;;;;;;;;5050981;23;20053;-75
2023/02/09 08:34:05;;;;;;;136.18;79.85;;;;;;;;;;4993551;28;20042;-74
2023/02/09 08:36:30;;;;;;;134.80;77.53;;;;;;;;;;4978761;28;20030;-74
2023/02/09 08:38:56;;;;;;;133.23;75.53;;;;;;;;;;5013201;28;20029;-75
2023/02/09 08:41:31;;;;;;;134.85;72.65;;;;;;;;;;5010925;23;20468;-73
2023/02/09 08:43:56;;;;;;;127.32;66.72;;;;;;;;;;5053816;22;20056;-71
2023/02/09 08:46:22;;;;;;;108.78;59.53;;;;;;;;;;5077218;28;20043;-71
2023/02/09 08:48:47;;;;;;;99.53;53.80;;;;;;;;;;5061202;28;20383;-71
2023/02/09 08:51:13;;;;;;;93.82;51.88;;;;;;;;;;5058710;28;20091;-71
2023/02/09 08:53:40;;;;;;;89.32;51.03;;;;;;;;;;5075090;28;20378;-71
2023/02/09 08:56:08;;;;;;;94.28;51.40;;;;;;;;;;5103763;22;20067;-74
2023/02/09 08:58:34;;;;;;;87.85;49.83;;;;;;;;;;5038906;28;20094;-74
2023/02/09 09:00:59;;;;;;;91.75;50.80;;;;;;;;;;5074932;28;20402;-74
2023/02/09 09:03:30;;;;;;;84.65;45.90;;;;;;;;;;5074794;28;20111;-74
2023/02/09 09:06:05;;;;;;;81.80;46.58;;;;;;;;;;5056536;28;20045;-73
2023/02/09 09:08:31;;;;;;;85.20;46.50;;;;;;;;;;5056590;28;20133;-75
2023/02/09 09:10:57;;;;;;;91.85;48.10;;;;;;;;;;5056526;28;20123;-73
2023/02/09 09:13:23;;;;;;;81.18;44.47;;;;;;;;;;5056876;28;20013;-74
2023/02/09 09:15:48;;;;;;;80.90;46.03;;;;;;;;;;5074358;28;20032;-73
2023/02/09 09:18:14;;;;;;;82.47;44.28;;;;;;;;;;5056733;28;20123;-74
2023/02/09 09:20:39;;;;;;;85.22;46.53;;;;;;;;;;5074234;28;20027;-73
2023/02/09 09:23:05;;;;;;;81.88;44.63;;;;;;;;;;5074202;28;20102;-73
2023/02/09 09:25:30;;;;;;;81.07;45.47;;;;;;;;;;5074732;28;20115;-73
2023/02/09 09:27:56;;;;;;;74.82;42.65;;;;;;;;;;5074010;28;20020;-74
2023/02/09 09:30:21;;;;;;;67.22;37.22;;;;;;;;;;5074068;28;20033;-74
2023/02/09 09:32:47;;;;;;;57.58;32.35;;;;;;;;;;5056036;28;20020;-74
2023/02/09 09:35:13;;;;;;;64.57;35.13;;;;;;;;;;5074061;28;20466;-75
2023/02/09 09:37:39;;;;;;;62.00;33.53;;;;;;;;;;5039551;28;20024;-73
2023/02/09 09:40:05;;;;;;;51.13;29.73;;;;;;;;;;5073065;28;20546;-73
2023/02/09 09:42:37;;;;;;;51.70;29.58;;;;;;;;;;5073921;28;20429;-72
2023/02/09 09:45:03;;;;;;;48.63;29.27;;;;;;;;;;5056379;28;20039;-73
2023/02/09 09:47:33;;;;;;;55.97;31.85;;;;;;;;;;5056189;28;20100;-72
2023/02/09 09:49:58;;;;;;;84.13;45.03;;;;;;;;;;5074393;28;20052;-73
2023/02/09 09:52:37;;;;;;;88.90;46.45;;;;;;;;;;5074112;28;20064;-73
2023/02/09 09:55:05;;;;;;;75.88;41.88;;;;;;;;;;5074033;28;20059;-73
2023/02/09 09:57:31;;;;;;;69.57;37.28;;;;;;;;;;5055549;28;20080;-72
2023/02/09 09:59:56;;;;;;;58.42;33.38;;;;;;;;;;5055728;28;20056;-73
2023/02/09 10:02:29;;;;;;;44.90;26.13;;;;;;;;;;5073449;28;20116;-74
2023/02/09 10:05:00;;;;;;;32.20;19.58;;;;;;;;;;5073941;28;20064;-73
2023/02/09 10:07:30;;;;;;;35.67;20.60;;;;;;;;;;5073839;28;20036;-73
2023/02/09 10:09:57;;;;;;;42.33;22.98;;;;;;;;;;5073932;28;20445;-73
2023/02/09 10:12:42;;;;;;;33.28;19.67;;;;;;;;;;5055698;28;20028;-75
2023/02/09 10:15:28;;;;;;;30.63;17.98;;;;;;;;;;5073835;28;20024;-73
2023/02/09 10:17:57;;;;;;;32.20;19.35;;;;;;;;;;5055602;28;20048;-73
2023/02/09 10:20:41;;;;;;;30.55;17.13;;;;;;;;;;5074063;28;20021;-73
2023/02/09 10:23:14;;;;;;;28.67;17.35;;;;;;;;;;5055496;28;20029;-74
2023/02/09 10:25:46;;;;;;;35.17;17.90;;;;;;;;;;5038666;28;20082;-74
2023/02/09 10:28:28;;;;;;;34.17;17.67;;;;;;;;;;5055776;28;20036;-74
2023/02/09 10:30:54;;;;;;;19.60;12.98;;;;;;;;;;5055437;28;20052;-73
2023/02/09 10:33:20;;;;;;;24.73;14.35;;;;;;;;;;5073954;28;20029;-73
2023/02/09 10:35:50;;;;;;;17.63;11.57;;;;;;;;;;5073671;28;20027;-74
2023/02/09 10:38:16;;;;;;;19.98;13.07;;;;;;;;;;5073374;28;20025;-73
2023/02/09 10:40:42;;;;;;;21.95;12.90;;;;;;;;;;5038742;28;20055;-73
2023/02/09 10:43:21;;;;;;;17.75;11.32;;;;;;;;;;5055380;28;20522;-75
2023/02/09 10:45:50;;;;;;;17.65;11.15;;;;;;;;;;5038697;28;20408;-74
2023/02/09 10:48:17;;;;;;;18.75;11.65;;;;;;;;;;5055205;28;20378;-74
2023/02/09 10:50:52;;;;;;;18.75;11.25;;;;;;;;;;5073402;28;20036;-73
2023/02/09 10:53:22;;;;;;;21.23;11.93;;;;;;;;;;5077382;28;20075;-73
2023/02/09 10:55:48;;;;;;;15.68;10.25;;;;;;;;;;5077375;28;20048;-73
2023/02/09 10:58:23;;;;;;;16.80;9.80;;;;;;;;;;5059005;28;20076;-74
2023/02/09 11:00:59;;;;;;;19.13;10.85;;;;;;;;;;5059086;28;20066;-73
2023/02/09 11:03:24;;;;;;;24.40;13.93;;;;;;;;;;5077203;28;20040;-73
2023/02/09 11:05:58;;;;;;;17.08;10.98;;;;;;;;;;5059872;28;20044;-74
2023/02/09 11:08:37;;;;;;;17.08;10.02;;;;;;;;;;5077092;28;20036;-73
2023/02/09 11:11:09;;;;;;;22.45;12.70;;;;;;;;;;5058892;28;20032;-74
2023/02/09 11:13:35;;;;;;;20.45;11.80;;;;;;;;;;5072467;22;20049;-74
2023/02/09 11:16:07;;;;;;;20.40;11.65;;;;;;;;;;5058281;28;20220;-73
2023/02/09 11:18:33;;;;;;;19.02;11.32;;;;;;;;;;5076908;28;20383;-74
2023/02/09 11:21:13;;;;;;;20.80;12.85;;;;;;;;;;5076924;28;20512;-73
2023/02/09 11:24:05;;;;;;;23.55;12.73;;;;;;;;;;5069717;22;20041;-72
2023/02/09 11:26:51;;;;;;;23.42;12.88;;;;;;;;;;5059465;22;20041;-73
2023/02/09 11:29:28;;;;;;;20.35;11.23;;;;;;;;;;4994433;28;20131;-71
2023/02/09 11:32:06;;;;;;;20.60;12.00;;;;;;;;;;4998900;28;20061;-74
2023/02/09 11:34:49;;;;;;;24.55;13.18;;;;;;;;;;5016949;28;20030;-73
2023/02/09 11:37:33;;;;;;;18.67;11.77;;;;;;;;;;5016879;28;20018;-74
2023/02/09 11:39:58;;;;;;;21.90;12.35;;;;;;;;;;5017147;28;20038;-73
2023/02/09 11:42:44;;;;;;;22.63;12.50;;;;;;;;;;5016495;28;20037;-73
2023/02/09 11:45:13;;;;;;;22.95;13.35;;;;;;;;;;5016996;28;20037;-74
2023/02/09 11:48:05;;;;;;;18.83;10.55;;;;;;;;;;5017287;28;20337;-74
2023/02/09 11:50:39;;;;;;;17.65;11.25;;;;;;;;;;4960551;28;20038;-74
2023/02/09 11:53:10;;;;;;;19.02;11.20;;;;;;;;;;5016604;28;20475;-74
2023/02/09 11:55:41;;;;;;;21.05;11.80;;;;;;;;;;5016560;28;20022;-74
2023/02/09 11:58:26;;;;;;;18.90;11.88;;;;;;;;;;4998588;28;20377;-74
2023/02/09 12:00:54;;;;;;;16.13;9.85;;;;;;;;;;4998538;28;20029;-74
2023/02/09 12:03:20;;;;;;;14.55;9.80;;;;;;;;;;4997476;28;20038;-74
2023/02/09 12:05:47;;;;;;;13.27;8.05;;;;;;;;;;4998796;28;20473;-74
2023/02/09 12:08:23;;;;;;;22.00;11.52;;;;;;;;;;5016236;28;20030;-74
2023/02/09 12:11:07;;;;;;;18.77;9.88;;;;;;;;;;4999055;28;20029;-74
2023/02/09 12:13:45;;;;;;;18.38;9.75;;;;;;;;;;5015899;28;20029;-74
2023/02/09 12:16:16;;;;;;;12.60;7.70;;;;;;;;;;4998680;28;20037;-74
2023/02/09 12:18:42;;;;;;;12.30;8.23;;;;;;;;;;4999067;28;20034;-74
2023/02/09 12:21:09;;;;;;;9.45;6.15;;;;;;;;;;5015767;28;20049;-74
2023/02/09 12:23:42;;;;;;;8.57;6.40;;;;;;;;;;5016007;28;20457;-74
2023/02/09 12:26:10;;;;;;;16.15;9.18;;;;;;;;;;5015892;28;20036;-71
2023/02/09 12:28:37;;;;;;;11.93;6.97;;;;;;;;;;4998098;28;20042;-71
2023/02/09 12:31:08;;;;;;;12.45;7.20;;;;;;;;;;4998399;28;20034;-71
2023/02/09 12:33:34;;;;;;;10.30;7.32;;;;;;;;;;5015838;28;20034;-71
2023/02/09 12:36:03;;;;;;;31.52;12.60;;;;;;;;;;5015762;28;20030;-70
2023/02/09 12:38:48;;;;;;;9.25;6.47;;;;;;;;;;4998191;28;20045;-72
2023/02/09 12:41:13;;;;;;;10.80;6.93;;;;;;;;;;5015929;28;20026;-71
2023/02/09 12:43:39;;;;;;;9.68;6.55;;;;;;;;;;4998110;28;20042;-71
2023/02/09 12:46:13;;;;;;;12.98;7.88;;;;;;;;;;5015239;28;20033;-73
2023/02/09 12:48:48;;;;;;;9.38;6.80;;;;;;;;;;5015529;28;20030;-71
2023/02/09 12:51:32;;;;;;;11.65;6.88;;;;;;;;;;5015431;28;20034;-71
2023/02/09 12:53:58;;;;;;;10.32;6.30;;;;;;;;;;5015460;28;20120;-72
2023/02/09 12:56:26;;;;;;;10.00;6.75;;;;;;;;;;5015398;28;20021;-71
2023/02/09 12:58:54;;;;;;;10.10;5.90;;;;;;;;;;5015091;28;20037;-71
2023/02/09 13:01:19;;;;;;;9.27;6.35;;;;;;;;;;5015261;28;20072;-71
2023/02/09 13:03:47;;;;;;;11.25;7.30;;;;;;;;;;4997462;28;20479;-71
2023/02/09 13:06:22;;;;;;;10.88;6.60;;;;;;;;;;4997239;28;20451;-71
2023/02/09 13:08:52;;;;;;;10.23;6.65;;;;;;;;;;5015664;28;20381;-71
2023/02/09 13:11:18;;;;;;;9.90;6.22;;;;;;;;;;5014848;28;20117;-72
2023/02/09 13:14:06;;;;;;;8.13;5.85;;;;;;;;;;4996906;28;20125;-71
2023/02/09 13:16:31;;;;;;;10.50;6.82;;;;;;;;;;5015032;28;20042;-71
2023/02/09 13:19:15;;;;;;;12.40;6.90;;;;;;;;;;4997276;28;20033;-71
2023/02/09 13:22:00;;;;;;;10.10;6.35;;;;;;;;;;5014700;28;20038;-71
2023/02/09 13:24:33;;;;;;;7.57;4.63;;;;;;;;;;4997445;28;20478;-70
2023/02/09 13:26:59;;;;;;;9.18;6.65;;;;;;;;;;5014654;28;20353;-71
2023/02/09 13:29:29;;;;;;;9.73;6.47;;;;;;;;;;5013352;28;20113;-72
2023/02/09 13:31:54;;;;;;;10.43;7.22;;;;;;;;;;5014534;28;20054;-71
2023/02/09 13:34:25;;;;;;;11.32;7.47;;;;;;;;;;5014725;28;20060;-71
2023/02/09 13:37:05;;;;;;;13.80;8.43;;;;;;;;;;5014698;28;20385;-71
2023/02/09 13:39:33;;;;;;;10.32;6.93;;;;;;;;;;5014666;28;20116;-71
2023/02/09 13:41:59;;;;;;;11.73;7.57;;;;;;;;;;4996736;28;20033;-74
2023/02/09 13:44:26;;;;;;;14.90;7.90;;;;;;;;;;4996711;28;20095;-71
2023/02/09 13:46:53;;;;;;;17.10;7.95;;;;;;;;;;5014458;28;20030;-71
2023/02/09 13:49:25;;;;;;;12.90;6.82;;;;;;;;;;5014533;28;20044;-71
2023/02/09 13:52:10;;;;;;;15.40;8.20;;;;;;;;;;4997012;28;20030;-71
2023/02/09 13:54:36;;;;;;;18.85;9.98;;;;;;;;;;5015234;28;20030;-74
2023/02/09 13:57:02;;;;;;;11.60;6.90;;;;;;;;;;4996550;28;20509;-71
2023/02/09 13:59:28;;;;;;;11.13;7.15;;;;;;;;;;5014379;28;20085;-71
2023/02/09 14:01:53;;;;;;;13.52;8.77;;;;;;;;;;5014331;28;20029;-71
2023/02/09 14:04:24;;;;;;;15.43;8.77;;;;;;;;;;4996568;28;20033;-71
2023/02/09 14:06:49;;;;;;;;;;;;;;;;;;5014656;28;20053;-71
2023/02/09 14:09:26;;;;;;;16.37;9.03;;;;;;;;;;5013955;28;20295;-71
2023/02/09 14:11:54;;;;;;;19.90;10.95;;;;;;;;;;5013950;28;20061;-71
2023/02/09 14:14:22;;;;;;;18.98;11.20;;;;;;;;;;5014175;28;20041;-71
2023/02/09 14:17:07;;;;;;;14.38;8.68;;;;;;;;;;4996284;28;20026;-71
2023/02/09 14:19:32;;;;;;;15.95;9.43;;;;;;;;;;5014145;28;20065;-71
2023/02/09 14:21:57;;;;;;;26.00;14.13;;;;;;;;;;5013866;28;20400;-71
2023/02/09 14:24:24;;;;;;;29.02;14.90;;;;;;;;;;5013802;28;20065;-71
2023/02/09 14:26:55;;;;;;;26.77;14.55;;;;;;;;;;4997875;28;20052;-70
2023/02/09 14:29:22;;;;;;;17.88;11.13;;;;;;;;;;5017975;28;20439;-71